createdAt,value
2022-09-28T00:01:09.057Z,60.37
2022-09-28T00:03:37.108Z,60.21
2022-09-28T00:06:10.225Z,59.90
2022-09-28T00:08:37.386Z,59.99
2022-09-28T00:11:06.430Z,60.03
2022-09-28T00:13:33.209Z,60.22
2022-09-28T00:16:07.761Z,59.91
2022-09-28T00:18:35.985Z,60.11
2022-09-28T00:21:12.195Z,60.38
2022-09-28T00:24:01.657Z,60.23
2022-09-28T00:26:30.259Z,60.03
2022-09-28T00:28:59.529Z,60.14
2022-09-28T00:31:28.065Z,59.99
2022-09-28T00:34:00.690Z,60.09
2022-09-28T00:36:30.039Z,60.18
2022-09-28T00:38:57.679Z,60.34
2022-09-28T00:41:27.153Z,59.94
2022-09-28T00:44:15.048Z,59.70
2022-09-28T00:46:41.821Z,59.75
2022-09-28T00:49:15.740Z,59.72
2022-09-28T00:51:44.411Z,59.83
2022-09-28T00:54:13.275Z,59.96
2022-09-28T00:56:42.681Z,59.90
2022-09-28T00:59:09.893Z,59.89
2022-09-28T01:01:37.358Z,60.13
2022-09-28T01:04:08.109Z,60.22
2022-09-28T01:06:36.955Z,60.06
2022-09-28T01:09:07.577Z,60.41
2022-09-28T01:11:37.715Z,60.31
2022-09-28T01:14:14.263Z,60.25
2022-09-28T01:16:59.436Z,60.17
2022-09-28T01:19:59.710Z,60.03
2022-09-28T01:22:47.886Z,59.98
2022-09-28T01:25:26.510Z,60.38
2022-09-28T01:28:05.588Z,60.44
2022-09-28T01:30:42.718Z,60.43
2022-09-28T01:33:14.057Z,60.48
2022-09-28T01:35:57.097Z,60.67
2022-09-28T01:38:49.155Z,60.83
2022-09-28T01:41:17.795Z,60.60
2022-09-28T01:44:02.908Z,60.81
2022-09-28T01:46:37.075Z,60.83
2022-09-28T01:49:09.978Z,60.88
2022-09-28T01:51:43.218Z,60.54
2022-09-28T01:54:21.803Z,60.58
2022-09-28T01:56:55.579Z,60.84
2022-09-28T01:59:29.433Z,60.56
2022-09-28T02:02:25.675Z,60.79
2022-09-28T02:05:02.015Z,60.78
2022-09-28T02:07:40.614Z,60.31
2022-09-28T02:10:13.594Z,60.63
2022-09-28T02:12:56.256Z,60.48
2022-09-28T02:15:30.988Z,60.68
2022-09-28T02:18:00.038Z,60.78
2022-09-28T02:20:26.701Z,60.37
2022-09-28T02:22:59.419Z,60.15
2022-09-28T02:25:33.714Z,60.25
2022-09-28T02:28:09.769Z,60.74
2022-09-28T02:30:39.146Z,60.31
2022-09-28T02:33:12.916Z,60.55
2022-09-28T02:35:41.624Z,60.72
2022-09-28T02:38:10.317Z,60.57
2022-09-28T02:40:38.089Z,60.46
2022-09-28T02:43:23.586Z,60.69
2022-09-28T02:46:23.995Z,60.57
2022-09-28T02:49:21.451Z,60.49
2022-09-28T02:52:14.715Z,60.87
2022-09-28T02:54:55.281Z,60.77
2022-09-28T02:58:04.104Z,61.03
2022-09-28T03:00:32.798Z,60.96
2022-09-28T03:03:24.110Z,61.04
2022-09-28T03:05:53.715Z,60.89
2022-09-28T03:08:32.972Z,60.95
2022-09-28T03:11:04.555Z,61.24
2022-09-28T03:13:32.997Z,61.12
2022-09-28T03:16:15.116Z,61.31
2022-09-28T03:18:44.351Z,60.90
2022-09-28T03:21:12.466Z,61.45
2022-09-28T03:23:43.380Z,61.44
2022-09-28T03:26:12.658Z,61.26
2022-09-28T03:28:39.561Z,61.29
2022-09-28T03:31:09.295Z,61.25
2022-09-28T03:33:39.075Z,61.40
2022-09-28T03:36:06.125Z,61.17
2022-09-28T03:38:32.848Z,61.35
2022-09-28T03:41:00.500Z,61.52
2022-09-28T03:43:32.510Z,61.55
2022-09-28T03:46:09.894Z,61.31
2022-09-28T03:48:41.793Z,61.48
2022-09-28T03:51:11.198Z,61.60
2022-09-28T03:53:40.125Z,61.51
2022-09-28T03:56:15.533Z,61.70
2022-09-28T03:58:42.560Z,61.38
2022-09-28T04:01:16.840Z,61.40
2022-09-28T04:03:47.630Z,61.62
2022-09-28T04:06:14.706Z,61.85
2022-09-28T04:08:41.308Z,61.44
2022-09-28T04:11:08.574Z,61.77
2022-09-28T04:13:41.907Z,61.45
2022-09-28T04:16:11.540Z,61.79
2022-09-28T04:18:39.975Z,61.86
2022-09-28T04:21:15.310Z,61.50
2022-09-28T04:24:01.338Z,61.69
2022-09-28T04:26:28.305Z,61.55
2022-09-28T04:29:14.999Z,61.36
2022-09-28T04:31:43.576Z,61.48
2022-09-28T04:34:21.652Z,61.43
2022-09-28T04:36:49.260Z,61.49
2022-09-28T04:39:19.461Z,61.66
2022-09-28T04:41:52.532Z,61.42
2022-09-28T04:44:23.335Z,61.63
2022-09-28T04:46:56.241Z,61.87
2022-09-28T04:49:29.202Z,61.76
2022-09-28T04:52:07.970Z,61.72
2022-09-28T04:54:36.249Z,61.70
2022-09-28T04:57:03.709Z,61.64
2022-09-28T04:59:30.372Z,61.22
2022-09-28T05:01:57.102Z,61.21
2022-09-28T05:04:31.062Z,61.21
2022-09-28T05:07:09.671Z,61.24
2022-09-28T05:09:38.563Z,61.12
2022-09-28T05:12:05.355Z,60.80
2022-09-28T05:14:33.318Z,61.00
2022-09-28T05:16:59.883Z,60.79
2022-09-28T05:19:26.475Z,60.72
2022-09-28T05:22:04.052Z,60.59
2022-09-28T05:24:39.662Z,60.78
2022-09-28T05:27:06.502Z,60.67
2022-09-28T05:29:33.830Z,60.84
2022-09-28T05:32:29.738Z,60.87
2022-09-28T05:35:06.481Z,60.78
2022-09-28T05:37:42.294Z,60.83
2022-09-28T05:40:09.534Z,61.13
2022-09-28T05:42:37.762Z,60.89
2022-09-28T05:45:08.472Z,61.24
2022-09-28T05:47:43.826Z,61.14
2022-09-28T05:50:11.957Z,61.26
2022-09-28T05:52:39.341Z,61.26
2022-09-28T05:55:07.714Z,61.28
2022-09-28T05:57:34.823Z,61.13
2022-09-28T06:00:09.169Z,61.29
2022-09-28T06:03:06.723Z,61.44
2022-09-28T06:05:36.213Z,61.17
2022-09-28T06:08:05.095Z,61.44
2022-09-28T06:10:32.872Z,61.40
2022-09-28T06:13:01.559Z,61.55
2022-09-28T06:15:30.931Z,61.66
2022-09-28T06:18:14.860Z,61.62
2022-09-28T06:21:02.556Z,61.75
2022-09-28T06:23:53.127Z,61.79
2022-09-28T06:26:20.273Z,61.79
2022-09-28T06:28:47.026Z,61.95
2022-09-28T06:31:13.686Z,61.95
2022-09-28T06:33:46.183Z,61.92
2022-09-28T06:36:13.319Z,61.96
2022-09-28T06:38:39.960Z,62.03
2022-09-28T06:41:06.712Z,62.22
2022-09-28T06:43:49.820Z,62.10
2022-09-28T06:46:45.641Z,62.15
2022-09-28T06:49:19.575Z,62.12
2022-09-28T06:52:04.794Z,62.30
2022-09-28T06:55:04.337Z,62.17
2022-09-28T06:57:41.143Z,62.51
2022-09-28T07:00:08.463Z,62.28
2022-09-28T07:02:35.395Z,62.29
2022-09-28T07:05:28.977Z,62.46
2022-09-28T07:08:17.462Z,62.49
2022-09-28T07:11:22.430Z,62.61
2022-09-28T07:14:18.087Z,62.66
2022-09-28T07:17:12.677Z,62.50
2022-09-28T07:19:41.670Z,62.38
2022-09-28T07:22:08.319Z,62.20
2022-09-28T07:24:36.396Z,62.03
2022-09-28T07:27:25.474Z,61.84
2022-09-28T07:30:06.974Z,61.93
2022-09-28T07:33:00.818Z,61.37
2022-09-28T07:35:55.411Z,61.32
2022-09-28T07:38:29.134Z,61.10
2022-09-28T07:41:11.523Z,60.85
2022-09-28T07:43:44.960Z,60.94
2022-09-28T07:46:14.842Z,60.39
2022-09-28T07:48:49.470Z,60.62
2022-09-28T07:51:34.964Z,60.16
2022-09-28T07:54:21.944Z,60.31
2022-09-28T07:56:54.155Z,60.34
2022-09-28T07:59:40.150Z,60.30
2022-09-28T08:02:28.365Z,60.01
2022-09-28T08:04:59.769Z,59.94
2022-09-28T08:07:26.539Z,59.86
2022-09-28T08:10:04.542Z,60.03
2022-09-28T08:12:47.153Z,59.58
2022-09-28T08:15:36.844Z,59.36
2022-09-28T08:18:23.319Z,59.61
2022-09-28T08:21:10.769Z,59.18
2022-09-28T08:23:42.372Z,59.13
2022-09-28T08:26:12.184Z,58.96
2022-09-28T08:28:43.436Z,58.74
2022-09-28T08:31:30.206Z,58.44
2022-09-28T08:34:20.053Z,58.21
2022-09-28T08:37:06.021Z,57.83
2022-09-28T08:39:55.758Z,58.11
2022-09-28T08:42:44.851Z,57.59
2022-09-28T08:45:33.618Z,57.77
2022-09-28T08:49:06.591Z,57.63
2022-09-28T08:52:03.662Z,57.54
2022-09-28T08:54:54.878Z,57.53
2022-09-28T08:57:39.637Z,57.36
2022-09-28T09:00:11.551Z,56.63
2022-09-28T09:02:39.762Z,56.79
2022-09-28T09:05:20.823Z,56.67
2022-09-28T09:08:54.631Z,56.57
2022-09-28T09:11:24.157Z,56.45
2022-09-28T09:14:20.942Z,56.21
2022-09-28T09:17:09.938Z,56.20
2022-09-28T09:20:18.894Z,56.36
2022-09-28T09:23:00.843Z,56.03
2022-09-28T09:25:43.138Z,56.33
2022-09-28T09:28:32.609Z,56.34
2022-09-28T09:31:22.455Z,55.74
2022-09-28T09:34:03.395Z,55.81
2022-09-28T09:36:55.208Z,55.53
2022-09-28T09:40:02.066Z,55.82
2022-09-28T09:42:53.414Z,56.01
2022-09-28T09:46:20.235Z,55.71
2022-09-28T09:49:23.997Z,55.29
2022-09-28T09:52:02.953Z,55.60
2022-09-28T09:54:34.310Z,55.38
2022-09-28T09:57:15.421Z,54.96
2022-09-28T10:00:01.740Z,55.03
2022-09-28T10:02:48.528Z,54.88
2022-09-28T10:05:34.925Z,54.45
2022-09-28T10:08:09.293Z,54.14
2022-09-28T10:10:45.023Z,53.93
2022-09-28T10:13:13.500Z,54.29
2022-09-28T10:15:43.378Z,54.06
2022-09-28T10:18:18.119Z,53.87
2022-09-28T10:21:03.328Z,53.45
2022-09-28T10:24:02.788Z,53.21
2022-09-28T10:26:40.407Z,52.68
2022-09-28T10:29:17.769Z,52.45
2022-09-28T10:31:49.533Z,52.78
2022-09-28T10:34:29.184Z,52.27
2022-09-28T10:37:11.224Z,52.19
2022-09-28T10:40:47.529Z,52.00
2022-09-28T10:43:28.748Z,51.91
2022-09-28T10:46:14.963Z,51.97
2022-09-28T10:48:59.982Z,52.08
2022-09-28T10:51:43.375Z,52.04
2022-09-28T10:54:20.484Z,51.78
2022-09-28T10:56:51.461Z,51.69
2022-09-28T10:59:29.157Z,51.42
2022-09-28T11:02:31.275Z,50.87
2022-09-28T11:05:07.441Z,51.14
2022-09-28T11:07:47.898Z,51.00
2022-09-28T11:10:22.978Z,51.24
2022-09-28T11:12:52.594Z,51.04
2022-09-28T11:15:27.095Z,51.11
2022-09-28T11:17:53.656Z,51.40
2022-09-28T11:20:27.394Z,50.99
2022-09-28T11:23:20.392Z,51.25
2022-09-28T11:26:02.817Z,50.93
2022-09-28T11:28:35.866Z,51.13
2022-09-28T11:31:08.492Z,51.09
2022-09-28T11:34:24.900Z,50.85
2022-09-28T11:37:13.628Z,50.47
2022-09-28T11:40:16.388Z,50.32
2022-09-28T11:42:53.725Z,50.49
2022-09-28T11:45:38.997Z,50.24
2022-09-28T11:48:15.541Z,50.31
2022-09-28T11:50:46.960Z,50.84
2022-09-28T11:53:30.947Z,50.85
2022-09-28T11:56:29.231Z,51.23
2022-09-28T11:59:00.367Z,50.99
2022-09-28T12:01:47.619Z,50.86
2022-09-28T12:04:33.895Z,51.10
2022-09-28T12:07:12.513Z,50.69
2022-09-28T12:09:54.287Z,50.86
2022-09-28T12:12:33.488Z,50.73
2022-09-28T12:15:19.057Z,50.72
2022-09-28T12:17:54.072Z,50.62
2022-09-28T12:20:27.110Z,50.62
2022-09-28T12:22:59.416Z,50.27
2022-09-28T12:25:39.590Z,50.42
2022-09-28T12:28:16.296Z,50.25
2022-09-28T12:30:45.513Z,50.31
2022-09-28T12:33:17.318Z,50.16
2022-09-28T12:36:14.867Z,50.24
2022-09-28T12:38:41.383Z,50.20
2022-09-28T12:41:39.157Z,50.14
2022-09-28T12:44:20.087Z,50.19
2022-09-28T12:47:09.629Z,50.53
2022-09-28T12:52:47.685Z,50.17
2022-09-28T12:55:48.096Z,50.54
2022-09-28T12:58:36.690Z,49.90
2022-09-28T13:01:21.254Z,49.41
2022-09-28T13:04:02.668Z,48.92
2022-09-28T13:06:34.998Z,48.72
2022-09-28T13:09:21.527Z,48.54
2022-09-28T13:12:09.950Z,48.03
2022-09-28T13:15:00.902Z,48.28
2022-09-28T13:17:51.812Z,48.09
2022-09-28T13:20:46.062Z,48.09
2022-09-28T13:23:26.194Z,48.31
2022-09-28T13:25:56.605Z,48.68
2022-09-28T13:28:27.269Z,48.96
2022-09-28T13:33:56.136Z,49.67
2022-09-28T13:36:28.607Z,49.96
2022-09-28T13:38:57.110Z,49.87
2022-09-28T13:41:40.380Z,50.00
2022-09-28T13:44:16.674Z,49.94
2022-09-28T13:46:49.479Z,49.83
2022-09-28T13:49:32.665Z,50.06
2022-09-28T13:52:27.057Z,49.90
2022-09-28T13:55:13.398Z,50.23
2022-09-28T13:57:57.933Z,50.83
2022-09-28T14:00:38.124Z,51.05
2022-09-28T14:03:13.217Z,50.67
2022-09-28T14:06:05.806Z,50.78
2022-09-28T14:08:39.557Z,50.46
2022-09-28T14:11:41.981Z,49.89
2022-09-28T14:14:08.532Z,50.35
2022-09-28T14:16:36.828Z,50.51
2022-09-28T14:19:07.167Z,50.49
2022-09-28T14:21:52.025Z,50.46
2022-09-28T14:24:30.151Z,51.09
2022-09-28T14:27:19.707Z,51.53
2022-09-28T14:29:49.686Z,51.54
2022-09-28T14:32:16.111Z,52.13
2022-09-28T14:34:54.564Z,52.32
2022-09-28T14:38:14.382Z,52.73
2022-09-28T14:41:10.912Z,52.88
2022-09-28T14:43:49.394Z,52.96
2022-09-28T14:46:18.771Z,52.94
2022-09-28T14:49:01.725Z,53.26
2022-09-28T14:51:30.956Z,53.17
2022-09-28T14:54:12.515Z,53.08
2022-09-28T14:56:54.329Z,52.99
2022-09-28T14:59:24.946Z,53.04
2022-09-28T15:01:57.946Z,53.31
2022-09-28T15:04:28.899Z,53.69
2022-09-28T15:06:55.777Z,53.68
2022-09-28T15:09:31.864Z,54.34
2022-09-28T15:12:04.147Z,54.50
2022-09-28T15:14:41.590Z,54.54
2022-09-28T15:17:13.346Z,54.67
2022-09-28T15:20:29.834Z,54.91
2022-09-28T15:22:58.455Z,54.92
2022-09-28T15:25:32.599Z,54.95
2022-09-28T15:28:17.190Z,55.30
2022-09-28T15:30:43.827Z,55.17
2022-09-28T15:33:43.369Z,55.27
2022-09-28T15:36:19.014Z,55.43
2022-09-28T15:39:00.223Z,55.31
2022-09-28T15:41:27.893Z,55.27
2022-09-28T15:44:23.424Z,55.55
2022-09-28T15:46:52.063Z,55.67
2022-09-28T15:49:35.619Z,55.80
2022-09-28T15:52:05.161Z,55.54
2022-09-28T15:54:43.360Z,55.81
2022-09-28T15:57:29.515Z,55.87
2022-09-28T15:59:59.491Z,56.03
2022-09-28T16:02:27.153Z,55.79
2022-09-28T16:05:00.752Z,55.78
2022-09-28T16:07:33.286Z,56.21
2022-09-28T16:10:26.122Z,56.04
2022-09-28T16:12:56.812Z,56.08
2022-09-28T16:15:24.785Z,56.58
2022-09-28T16:18:01.347Z,56.05
2022-09-28T16:20:31.991Z,55.86
2022-09-28T16:23:06.032Z,56.39
2022-09-28T16:25:39.071Z,56.22
2022-09-28T16:28:06.510Z,56.55
2022-09-28T16:30:34.543Z,56.50
2022-09-28T16:33:05.535Z,56.47
2022-09-28T16:35:41.201Z,56.86
2022-09-28T16:38:14.373Z,56.89
2022-09-28T16:40:42.924Z,56.72
2022-09-28T16:43:39.389Z,56.75
2022-09-28T16:46:13.206Z,56.86
2022-09-28T16:48:51.564Z,56.68
2022-09-28T16:51:20.138Z,56.93
2022-09-28T16:54:07.808Z,57.02
2022-09-28T16:56:36.080Z,56.51
2022-09-28T16:59:03.171Z,56.94
2022-09-28T17:01:31.198Z,56.60
2022-09-28T17:04:02.118Z,57.05
2022-09-28T17:06:28.718Z,56.53
2022-09-28T17:08:56.580Z,56.73
2022-09-28T17:11:24.828Z,56.70
2022-09-28T17:13:58.861Z,56.48
2022-09-28T17:16:51.011Z,56.38
2022-09-28T17:19:28.576Z,56.29
2022-09-28T17:21:55.047Z,56.44
2022-09-28T17:24:21.897Z,56.72
2022-09-28T17:26:50.865Z,56.86
2022-09-28T17:29:17.997Z,56.46
2022-09-28T17:31:46.238Z,56.57
2022-09-28T17:34:16.201Z,56.62
2022-09-28T17:36:43.793Z,56.89
2022-09-28T17:39:15.667Z,56.89
2022-09-28T17:41:42.385Z,56.73
2022-09-28T17:44:12.185Z,56.68
2022-09-28T17:46:45.781Z,56.70
2022-09-28T17:49:12.586Z,57.05
2022-09-28T17:51:39.242Z,56.82
2022-09-28T17:54:08.823Z,56.95
2022-09-28T17:56:36.238Z,57.23
2022-09-28T17:59:10.064Z,57.13
2022-09-28T18:01:39.074Z,57.25
2022-09-28T18:04:08.682Z,57.33
2022-09-28T18:06:42.199Z,57.50
2022-09-28T18:09:13.693Z,57.57
2022-09-28T18:11:43.248Z,57.12
2022-09-28T18:14:20.398Z,57.17
2022-09-28T18:16:46.975Z,57.20
2022-09-28T18:19:13.644Z,57.21
2022-09-28T18:21:40.116Z,56.99
2022-09-28T18:24:09.501Z,57.44
2022-09-28T18:26:37.085Z,57.34
2022-09-28T18:29:03.585Z,57.67
2022-09-28T18:31:30.137Z,57.25
2022-09-28T18:34:01.266Z,57.60
2022-09-28T18:36:29.492Z,57.40
2022-09-28T18:38:57.284Z,57.61
2022-09-28T18:41:24.120Z,57.66
2022-09-28T18:43:53.058Z,57.43
2022-09-28T18:46:19.668Z,57.51
2022-09-28T18:48:47.694Z,57.63
2022-09-28T18:51:14.481Z,57.31
2022-09-28T18:53:45.607Z,57.41
2022-09-28T18:56:18.425Z,57.46
2022-09-28T18:58:46.373Z,57.52
2022-09-28T19:01:31.925Z,57.61
2022-09-28T19:04:01.455Z,57.10
2022-09-28T19:06:28.382Z,57.43
2022-09-28T19:08:55.881Z,57.42
2022-09-28T19:11:22.876Z,57.30
2022-09-28T19:13:55.461Z,57.57
2022-09-28T19:16:25.305Z,57.60
2022-09-28T19:18:53.611Z,57.38
2022-09-28T19:21:21.216Z,57.50
2022-09-28T19:23:50.059Z,57.68
2022-09-28T19:26:22.831Z,57.74
2022-09-28T19:28:50.146Z,57.55
2022-09-28T19:31:17.195Z,57.98
2022-09-28T19:33:48.454Z,57.92
2022-09-28T19:36:21.921Z,57.77
2022-09-28T19:38:48.641Z,58.12
2022-09-28T19:41:43.689Z,57.86
2022-09-28T19:44:27.138Z,58.00
2022-09-28T19:46:58.734Z,57.87
2022-09-28T19:49:27.587Z,57.90
2022-09-28T19:52:14.177Z,57.80
2022-09-28T19:54:44.465Z,57.60
2022-09-28T19:57:12.335Z,57.95
2022-09-28T19:59:39.123Z,57.75
2022-09-28T20:02:07.140Z,57.36
2022-09-28T20:04:34.829Z,57.34
2022-09-28T20:07:01.887Z,57.65
2022-09-28T20:09:28.641Z,57.65
2022-09-28T20:11:55.491Z,57.52
2022-09-28T20:14:31.241Z,57.78
2022-09-28T20:17:00.813Z,57.41
2022-09-28T20:19:27.306Z,57.60
2022-09-28T20:21:54.780Z,57.68
2022-09-28T20:24:25.630Z,57.64
2022-09-28T20:26:52.121Z,57.36
2022-09-28T20:29:18.750Z,57.48
2022-09-28T20:31:45.661Z,57.81
2022-09-28T20:34:13.046Z,57.72
2022-09-28T20:36:42.526Z,57.45
2022-09-28T20:39:10.395Z,57.60
2022-09-28T20:41:36.987Z,57.89
2022-09-28T20:44:06.509Z,57.82
2022-09-28T20:46:36.359Z,57.62
2022-09-28T20:49:03.922Z,57.64
2022-09-28T20:51:30.948Z,57.50
2022-09-28T20:54:02.080Z,57.80
2022-09-28T20:56:31.539Z,57.50
2022-09-28T20:58:58.016Z,57.59
2022-09-28T21:01:30.455Z,57.53
2022-09-28T21:04:03.161Z,57.39
2022-09-28T21:06:31.974Z,57.44
2022-09-28T21:08:58.666Z,57.29
2022-09-28T21:11:26.994Z,57.42
2022-09-28T21:13:58.103Z,57.46
2022-09-28T21:16:26.595Z,57.35
2022-09-28T21:18:53.115Z,57.48
2022-09-28T21:21:21.415Z,57.33
2022-09-28T21:23:52.442Z,57.21
2022-09-28T21:26:25.030Z,57.39
2022-09-28T21:28:59.075Z,57.53
2022-09-28T21:31:29.328Z,57.33
2022-09-28T21:33:58.050Z,57.32
2022-09-28T21:36:25.562Z,57.43
2022-09-28T21:38:53.425Z,57.24
2022-09-28T21:41:19.913Z,57.33
2022-09-28T21:43:48.335Z,57.33
2022-09-28T21:46:15.010Z,57.59
2022-09-28T21:48:41.578Z,57.60
2022-09-28T21:51:12.499Z,57.14
2022-09-28T21:53:42.004Z,57.52
2022-09-28T21:56:11.666Z,57.33
2022-09-28T21:58:38.540Z,57.51
2022-09-28T22:01:08.327Z,57.53
2022-09-28T22:03:52.690Z,57.36
2022-09-28T22:06:21.168Z,57.59
2022-09-28T22:08:49.032Z,57.40
2022-09-28T22:11:27.027Z,57.60
2022-09-28T22:13:57.362Z,57.54
2022-09-28T22:16:26.485Z,57.57
2022-09-28T22:18:53.398Z,57.40
2022-09-28T22:21:25.829Z,57.39
2022-09-28T22:23:52.781Z,57.43
2022-09-28T22:26:24.682Z,57.64
2022-09-28T22:28:52.735Z,57.44
2022-09-28T22:31:23.310Z,57.51
2022-09-28T22:33:54.730Z,57.54
2022-09-28T22:36:21.444Z,57.53
2022-09-28T22:38:48.919Z,57.60
2022-09-28T22:41:17.212Z,57.73
2022-09-28T22:43:49.796Z,57.46
2022-09-28T22:46:22.294Z,57.64
2022-09-28T22:48:51.172Z,57.53
2022-09-28T22:51:17.662Z,57.45
2022-09-28T22:53:53.333Z,57.64
2022-09-28T22:56:19.865Z,57.98
2022-09-28T22:58:47.252Z,57.77
2022-09-28T23:01:15.124Z,57.69
2022-09-28T23:03:44.693Z,57.81
2022-09-28T23:06:13.115Z,58.05
2022-09-28T23:08:39.982Z,57.99
2022-09-28T23:11:06.634Z,57.94
2022-09-28T23:13:33.566Z,58.22
2022-09-28T23:16:02.572Z,57.97
2022-09-28T23:18:33.053Z,58.11
2022-09-28T23:21:05.103Z,58.10
2022-09-28T23:23:32.352Z,57.97
2022-09-28T23:25:59.976Z,57.87
2022-09-28T23:28:27.119Z,58.07
2022-09-28T23:30:54.094Z,58.23
2022-09-28T23:33:21.790Z,58.20
2022-09-28T23:35:48.689Z,58.23
2022-09-28T23:38:20.321Z,58.16
2022-09-28T23:40:47.423Z,58.52
2022-09-28T23:43:14.819Z,58.36
2022-09-28T23:45:45.578Z,58.17
2022-09-28T23:48:15.190Z,58.47
2022-09-28T23:50:43.432Z,58.25
2022-09-28T23:53:11.932Z,58.51
2022-09-28T23:55:41.269Z,58.27
2022-09-28T23:58:07.869Z,58.46
